Time;durP1;ratioP1;P1;durP2;ratioP2;P2;SDS_P1;SDS_P2;PMS_P1;PMS_P2;Temp;Humidity;BMP_temperature;BMP_pressure;BME280_temperature;BME280_humidity;BME280_pressure;Samples;Min_cycle;Max_cycle;Signal;HPM_P1;HPM_P2
2022/10/26 00:01:28;;;;;;;15.00;3.10;;;15.20;99.90;;;;;;5053527;28;20045;-62
2022/10/26 00:03:55;;;;;;;13.90;2.50;;;15.20;99.90;;;;;;5056816;28;20087;-63
2022/10/26 00:06:23;;;;;;;14.02;3.15;;;15.30;99.90;;;;;;5055858;28;20062;-63
2022/10/26 00:08:50;;;;;;;11.15;2.42;;;15.30;99.90;;;;;;5047011;28;20117;-64
2022/10/26 00:11:17;;;;;;;12.25;2.85;;;15.30;99.90;;;;;;5037036;28;20030;-63
2022/10/26 00:13:43;;;;;;;10.85;2.60;;;15.30;99.90;;;;;;5036925;28;20042;-64
2022/10/26 00:16:10;;;;;;;14.40;2.45;;;15.30;99.90;;;;;;5050788;28;20071;-61
2022/10/26 00:18:37;;;;;;;11.23;2.60;;;15.30;99.90;;;;;;5056854;28;20119;-62
2022/10/26 00:21:04;;;;;;;15.77;3.67;;;15.40;99.90;;;;;;5056550;28;20071;-63
2022/10/26 00:23:30;;;;;;;8.75;2.33;;;15.40;99.90;;;;;;5056704;28;20040;-63
2022/10/26 00:25:57;;;;;;;10.60;2.90;;;15.40;99.90;;;;;;5056350;28;20048;-64
2022/10/26 00:28:24;;;;;;;11.07;3.10;;;15.40;99.90;;;;;;5055748;28;20049;-63
2022/10/26 00:30:51;;;;;;;10.70;2.80;;;15.40;99.90;;;;;;5054861;28;20504;-62
2022/10/26 00:33:17;;;;;;;12.05;2.80;;;15.40;99.90;;;;;;5056345;28;20111;-65
2022/10/26 00:35:44;;;;;;;12.45;2.90;;;15.40;99.90;;;;;;5056198;28;20057;-63
2022/10/26 00:38:12;;;;;;;12.23;2.40;;;15.40;99.90;;;;;;5054717;28;20040;-62
2022/10/26 00:40:38;;;;;;;8.63;2.20;;;15.40;99.90;;;;;;5056093;28;20127;-62
2022/10/26 00:43:05;;;;;;;13.13;3.03;;;15.40;99.90;;;;;;5056056;28;20460;-61
2022/10/26 00:45:32;;;;;;;9.43;2.55;;;15.40;99.90;;;;;;5054952;28;20076;-61
2022/10/26 00:47:58;;;;;;;14.35;2.50;;;15.40;99.90;;;;;;5055958;28;20126;-64
2022/10/26 00:50:25;;;;;;;14.75;3.08;;;15.40;99.90;;;;;;5055827;28;20033;-63
2022/10/26 00:52:52;;;;;;;10.88;2.55;;;15.50;99.90;;;;;;5056283;28;20067;-61
2022/10/26 00:55:20;;;;;;;10.88;2.83;;;15.50;99.90;;;;;;5055922;28;20041;-61
2022/10/26 00:57:46;;;;;;;9.75;2.47;;;15.50;99.90;;;;;;5054160;28;20036;-64
2022/10/26 01:00:13;;;;;;;10.13;2.45;;;15.50;99.90;;;;;;5042484;28;20107;-64
2022/10/26 01:02:40;;;;;;;13.68;2.97;;;15.50;99.90;;;;;;5036256;28;20045;-64
2022/10/26 01:05:07;;;;;;;11.23;2.85;;;15.50;99.90;;;;;;5035798;28;20075;-64
2022/10/26 01:07:33;;;;;;;10.75;2.78;;;15.50;99.90;;;;;;5034928;28;20469;-62
2022/10/26 01:10:00;;;;;;;13.82;2.72;;;15.50;99.90;;;;;;5055341;28;20362;-62
2022/10/26 01:12:27;;;;;;;13.55;2.65;;;15.50;99.90;;;;;;5055744;28;20040;-64
2022/10/26 01:14:53;;;;;;;12.52;2.65;;;15.50;99.90;;;;;;5054448;28;20124;-61
2022/10/26 01:17:20;;;;;;;9.88;2.55;;;15.50;99.90;;;;;;5055529;28;20102;-64
2022/10/26 01:19:50;;;;;;;9.40;2.42;;;15.50;99.90;;;;;;5055651;28;20163;-63
2022/10/26 01:22:17;;;;;;;12.30;2.58;;;15.50;99.90;;;;;;5055507;28;20415;-62
2022/10/26 01:24:44;;;;;;;9.05;2.20;;;15.50;99.90;;;;;;5055642;28;20400;-62
2022/10/26 01:27:10;;;;;;;10.13;2.00;;;15.50;99.90;;;;;;5054438;28;20041;-64
2022/10/26 01:29:37;;;;;;;16.42;2.85;;;15.50;99.90;;;;;;5054305;28;20068;-62
2022/10/26 01:32:04;;;;;;;13.43;2.80;;;15.50;99.90;;;;;;5055147;28;20072;-61
2022/10/26 01:34:30;;;;;;;13.40;2.42;;;15.50;99.90;;;;;;5055253;28;20491;-62
2022/10/26 01:36:57;;;;;;;11.27;2.50;;;15.50;99.90;;;;;;5037544;28;20069;-63
2022/10/26 01:39:24;;;;;;;10.73;2.47;;;15.50;99.90;;;;;;5054599;28;20075;-62
2022/10/26 01:41:51;;;;;;;13.48;2.78;;;15.50;99.90;;;;;;5055645;28;20073;-62
2022/10/26 01:44:17;;;;;;;15.70;3.67;;;15.50;99.90;;;;;;5054002;28;20041;-63
2022/10/26 01:46:44;;;;;;;11.50;2.38;;;15.50;99.90;;;;;;5054682;28;20095;-61
2022/10/26 01:49:11;;;;;;;11.13;2.53;;;15.50;99.90;;;;;;5055029;28;20550;-64
2022/10/26 01:51:37;;;;;;;12.15;2.50;;;15.50;99.90;;;;;;5054646;28;20473;-63
2022/10/26 01:54:04;;;;;;;12.73;2.42;;;15.50;99.90;;;;;;5054393;28;20396;-64
2022/10/26 01:56:31;;;;;;;14.70;2.78;;;15.50;99.90;;;;;;5054636;28;20068;-63
2022/10/26 01:58:58;;;;;;;11.73;2.58;;;15.50;99.90;;;;;;5053485;28;20051;-64
2022/10/26 02:01:24;;;;;;;11.20;2.88;;;15.50;99.90;;;;;;5052845;28;20454;-63
2022/10/26 02:03:51;;;;;;;12.30;2.75;;;15.50;99.90;;;;;;5054028;28;20054;-62
2022/10/26 02:06:18;;;;;;;8.30;2.15;;;15.50;99.90;;;;;;5054821;28;20124;-63
2022/10/26 02:08:45;;;;;;;9.73;2.30;;;15.50;99.90;;;;;;5053832;28;20527;-63
2022/10/26 02:11:11;;;;;;;13.00;2.78;;;15.50;99.90;;;;;;5051393;28;20483;-62
2022/10/26 02:13:38;;;;;;;13.65;2.17;;;15.50;99.90;;;;;;5053915;28;20049;-63
2022/10/26 02:16:05;;;;;;;9.65;2.55;;;15.50;99.90;;;;;;5054004;28;20495;-63
2022/10/26 02:18:32;;;;;;;12.75;2.65;;;15.50;99.90;;;;;;5054186;28;20040;-61
2022/10/26 02:20:58;;;;;;;12.30;2.55;;;15.50;99.90;;;;;;5054441;28;20059;-63
2022/10/26 02:23:25;;;;;;;10.88;2.45;;;15.50;99.90;;;;;;5054513;28;20417;-62
2022/10/26 02:25:52;;;;;;;10.13;3.13;;;15.50;99.90;;;;;;5052550;28;20045;-63
2022/10/26 02:28:18;;;;;;;14.32;2.83;;;15.50;99.90;;;;;;5054265;28;20116;-64
2022/10/26 02:30:45;;;;;;;9.93;2.45;;;15.50;99.90;;;;;;5053596;28;20036;-63
2022/10/26 02:33:12;;;;;;;13.77;2.65;;;15.50;99.90;;;;;;5054627;28;20530;-64
2022/10/26 02:35:39;;;;;;;14.98;2.70;;;15.50;99.90;;;;;;5054335;28;20060;-61
2022/10/26 02:38:05;;;;;;;16.52;3.08;;;15.50;99.90;;;;;;5053700;28;20061;-63
2022/10/26 02:40:32;;;;;;;10.48;2.70;;;15.50;99.90;;;;;;5054452;28;20056;-61
2022/10/26 02:42:59;;;;;;;13.48;2.55;;;15.50;99.90;;;;;;5054333;28;20033;-64
2022/10/26 02:45:25;;;;;;;9.18;2.00;;;15.50;99.90;;;;;;5053853;28;20045;-63
2022/10/26 02:47:52;;;;;;;13.15;3.00;;;15.40;99.90;;;;;;5046211;28;20115;-64
2022/10/26 02:50:19;;;;;;;8.63;2.60;;;15.40;99.90;;;;;;5054002;28;20459;-63
2022/10/26 02:52:46;;;;;;;11.20;2.60;;;15.40;99.90;;;;;;5053779;28;20036;-62
2022/10/26 02:55:13;;;;;;;10.70;2.35;;;15.40;99.90;;;;;;5053272;28;20052;-62
2022/10/26 02:57:40;;;;;;;11.73;2.60;;;15.30;99.90;;;;;;5054560;28;20041;-61
2022/10/26 03:00:06;;;;;;;9.05;2.22;;;15.30;99.90;;;;;;5053989;28;20437;-63
2022/10/26 03:02:33;;;;;;;11.30;2.72;;;15.30;99.90;;;;;;5053148;28;20110;-62
2022/10/26 03:05:00;;;;;;;12.23;2.83;;;15.30;99.90;;;;;;5050662;28;20069;-62
2022/10/26 03:07:27;;;;;;;11.77;2.95;;;15.30;99.90;;;;;;5053014;28;20069;-62
2022/10/26 03:09:53;;;;;;;13.30;2.53;;;15.20;99.90;;;;;;5053335;28;20126;-63
2022/10/26 03:12:20;;;;;;;11.20;2.88;;;15.20;99.90;;;;;;5053423;28;20041;-63
2022/10/26 03:14:47;;;;;;;13.38;2.80;;;15.20;99.90;;;;;;5053409;28;20033;-64
2022/10/26 03:17:13;;;;;;;10.90;3.13;;;15.20;99.90;;;;;;5053600;28;20423;-64
2022/10/26 03:19:40;;;;;;;14.05;2.60;;;15.20;99.90;;;;;;5052678;28;20049;-64
2022/10/26 03:22:07;;;;;;;13.27;2.92;;;15.20;99.90;;;;;;5051672;28;20519;-64
2022/10/26 03:24:33;;;;;;;11.25;2.88;;;15.20;99.90;;;;;;5053784;28;20041;-64
2022/10/26 03:27:00;;;;;;;12.20;2.80;;;15.20;99.90;;;;;;5051728;28;20040;-64
2022/10/26 03:29:28;;;;;;;10.40;3.25;;;15.20;99.90;;;;;;5053529;28;20110;-62
2022/10/26 03:31:55;;;;;;;17.00;3.35;;;15.20;99.90;;;;;;5053883;28;20485;-61
2022/10/26 03:34:21;;;;;;;15.60;3.17;;;15.20;99.90;;;;;;5053288;28;20071;-62
2022/10/26 03:36:48;;;;;;;12.50;3.28;;;15.20;99.90;;;;;;5053191;28;20075;-64
2022/10/26 03:39:15;;;;;;;12.73;2.90;;;15.20;99.90;;;;;;5052549;28;20064;-62
2022/10/26 03:41:41;;;;;;;13.18;3.10;;;15.20;99.90;;;;;;5037332;28;20045;-64
2022/10/26 03:44:08;;;;;;;16.35;3.13;;;15.20;99.90;;;;;;5033488;28;20080;-64
2022/10/26 03:46:35;;;;;;;13.23;2.97;;;15.20;99.90;;;;;;5033404;28;20091;-64
2022/10/26 03:49:02;;;;;;;11.55;2.78;;;15.20;99.90;;;;;;5044506;28;20079;-64
2022/10/26 03:51:28;;;;;;;14.52;3.00;;;15.10;99.90;;;;;;5035432;28;20041;-63
2022/10/26 03:53:55;;;;;;;16.83;3.75;;;15.20;99.90;;;;;;5052063;28;20145;-64
2022/10/26 03:56:22;;;;;;;15.55;2.65;;;15.20;99.90;;;;;;5053455;28;20071;-62
2022/10/26 03:58:48;;;;;;;13.77;3.35;;;15.20;99.90;;;;;;5053178;28;20041;-63
2022/10/26 04:01:15;;;;;;;14.85;2.70;;;15.20;99.90;;;;;;5052631;28;20079;-62
2022/10/26 04:03:42;;;;;;;15.25;3.13;;;15.30;99.90;;;;;;5037386;28;20045;-61
2022/10/26 04:06:08;;;;;;;11.88;2.75;;;15.30;99.90;;;;;;5038431;28;20036;-62
2022/10/26 04:08:35;;;;;;;13.38;2.83;;;15.30;99.90;;;;;;5053163;28;20370;-61
2022/10/26 04:11:02;;;;;;;10.95;2.92;;;15.40;99.90;;;;;;5051279;28;20077;-62
2022/10/26 04:13:30;;;;;;;15.90;3.00;;;15.40;99.90;;;;;;5033811;28;20041;-61
2022/10/26 04:15:57;;;;;;;12.70;3.15;;;15.50;99.90;;;;;;5051419;28;20476;-64
2022/10/26 04:18:23;;;;;;;12.70;3.28;;;15.50;99.90;;;;;;5053400;28;20045;-62
2022/10/26 04:20:50;;;;;;;17.77;3.17;;;15.60;99.90;;;;;;5037747;28;20080;-64
2022/10/26 04:23:17;;;;;;;9.18;2.60;;;15.60;99.90;;;;;;5032903;28;20539;-61
2022/10/26 04:25:43;;;;;;;15.05;2.85;;;15.70;99.90;;;;;;5045760;28;20043;-61
2022/10/26 04:28:10;;;;;;;14.05;3.05;;;15.70;99.90;;;;;;5052795;28;20045;-63
2022/10/26 04:30:37;;;;;;;13.10;3.03;;;15.70;99.90;;;;;;5041417;28;20372;-62
2022/10/26 04:33:04;;;;;;;15.50;2.78;;;15.80;99.90;;;;;;5051346;28;20041;-64
2022/10/26 04:35:30;;;;;;;8.95;2.85;;;15.80;99.90;;;;;;5050696;28;20048;-63
2022/10/26 04:37:57;;;;;;;12.27;2.92;;;15.90;99.90;;;;;;5036229;28;20121;-61
2022/10/26 04:40:24;;;;;;;18.90;3.33;;;15.90;99.90;;;;;;5037872;28;20072;-63
2022/10/26 04:42:51;;;;;;;11.73;2.53;;;15.90;99.90;;;;;;5038049;28;20040;-62
2022/10/26 04:45:18;;;;;;;9.77;2.97;;;15.90;99.90;;;;;;5043112;28;20492;-63
2022/10/26 04:47:45;;;;;;;16.30;3.30;;;16.00;99.90;;;;;;5053497;28;20084;-61
2022/10/26 04:50:11;;;;;;;15.43;3.40;;;16.00;99.90;;;;;;5056015;28;20121;-64
2022/10/26 04:52:38;;;;;;;11.05;2.72;;;16.00;99.90;;;;;;5054206;28;20427;-62
2022/10/26 04:55:05;;;;;;;12.35;3.00;;;16.00;99.90;;;;;;5049251;28;20041;-64
2022/10/26 04:57:32;;;;;;;9.63;2.55;;;16.00;99.90;;;;;;5036368;28;20179;-64
2022/10/26 04:59:59;;;;;;;16.52;2.88;;;16.00;99.90;;;;;;5045733;28;20041;-65
2022/10/26 05:02:25;;;;;;;15.15;2.92;;;16.00;99.90;;;;;;5041025;28;20057;-63
2022/10/26 05:04:52;;;;;;;13.35;3.17;;;16.00;99.90;;;;;;5035789;28;20049;-62
2022/10/26 05:07:19;;;;;;;16.02;3.05;;;16.00;99.90;;;;;;5054672;28;20048;-64
2022/10/26 05:09:46;;;;;;;11.85;3.08;;;16.00;99.90;;;;;;5046469;28;20139;-62
2022/10/26 05:12:12;;;;;;;11.45;2.92;;;15.90;99.90;;;;;;5054430;28;20103;-64
2022/10/26 05:14:39;;;;;;;14.50;2.50;;;15.90;99.90;;;;;;5055601;28;20041;-63
2022/10/26 05:17:06;;;;;;;12.98;2.65;;;15.90;99.90;;;;;;5046602;28;20485;-64
2022/10/26 05:19:33;;;;;;;11.35;3.00;;;15.80;99.90;;;;;;5052311;28;20140;-61
2022/10/26 05:21:59;;;;;;;16.98;2.70;;;15.80;99.90;;;;;;5055356;28;20131;-63
2022/10/26 05:24:26;;;;;;;13.98;3.08;;;15.70;99.90;;;;;;5054341;28;20044;-63
2022/10/26 05:26:53;;;;;;;15.00;2.80;;;15.70;99.90;;;;;;5055303;28;20072;-63
2022/10/26 05:29:19;;;;;;;13.25;2.67;;;15.70;99.90;;;;;;5038563;28;20064;-64
2022/10/26 05:31:46;;;;;;;12.27;2.45;;;15.60;99.90;;;;;;5036319;28;20037;-62
2022/10/26 05:34:13;;;;;;;10.70;2.58;;;15.60;99.90;;;;;;5051626;28;20033;-63
2022/10/26 05:36:40;;;;;;;18.63;2.83;;;15.50;99.90;;;;;;5051796;28;20539;-64
2022/10/26 05:39:06;;;;;;;13.55;2.42;;;15.50;99.90;;;;;;5044293;28;20073;-64
2022/10/26 05:41:33;;;;;;;11.63;2.70;;;15.50;99.90;;;;;;5036273;28;20041;-62
2022/10/26 05:44:00;;;;;;;12.57;3.15;;;15.50;99.90;;;;;;5053548;28;20076;-63
2022/10/26 05:46:26;;;;;;;11.52;2.67;;;15.50;99.90;;;;;;5053765;28;20072;-63
2022/10/26 05:48:53;;;;;;;16.77;2.53;;;15.40;99.90;;;;;;5053878;28;20068;-64
2022/10/26 05:51:20;;;;;;;14.52;2.80;;;15.40;99.90;;;;;;5043494;28;20056;-64
2022/10/26 05:53:47;;;;;;;11.93;2.50;;;15.40;99.90;;;;;;5051656;28;20119;-62
2022/10/26 05:56:14;;;;;;;9.65;2.22;;;15.40;99.90;;;;;;5054999;28;20045;-62
2022/10/26 05:58:40;;;;;;;9.95;2.20;;;15.40;99.90;;;;;;5053586;28;20141;-62
2022/10/26 06:01:07;;;;;;;9.23;2.50;;;15.40;99.90;;;;;;5049477;28;20079;-64
2022/10/26 06:03:34;;;;;;;11.63;2.53;;;15.40;99.90;;;;;;5043172;28;20128;-64
2022/10/26 06:06:01;;;;;;;10.13;2.47;;;15.40;99.90;;;;;;5035056;28;20045;-64
2022/10/26 06:08:32;;;;;;;11.27;2.33;;;15.40;99.90;;;;;;5047267;28;20073;-63
2022/10/26 06:10:58;;;;;;;8.65;2.00;;;15.50;99.90;;;;;;5051397;28;20049;-64
2022/10/26 06:13:25;;;;;;;11.27;2.05;;;15.50;99.90;;;;;;5053664;28;20095;-64
2022/10/26 06:15:52;;;;;;;10.80;2.63;;;15.50;99.90;;;;;;5048537;28;20033;-64
2022/10/26 06:18:19;;;;;;;9.48;2.22;;;15.50;99.90;;;;;;5052974;28;20079;-62
2022/10/26 06:20:45;;;;;;;8.90;2.17;;;15.50;99.90;;;;;;5053453;28;20243;-64
2022/10/26 06:23:12;;;;;;;8.23;2.42;;;15.40;99.90;;;;;;5051369;28;20115;-62
2022/10/26 06:25:39;;;;;;;9.65;2.00;;;15.40;99.90;;;;;;5054311;28;20049;-63
2022/10/26 06:28:05;;;;;;;8.90;2.47;;;15.40;99.90;;;;;;5054678;28;20091;-63
2022/10/26 06:30:32;;;;;;;11.38;2.80;;;15.40;99.90;;;;;;5053130;28;20091;-62
2022/10/26 06:33:00;;;;;;;9.10;2.10;;;15.40;99.90;;;;;;5050516;28;20075;-61
2022/10/26 06:35:44;;;;;;;13.88;2.53;;;15.40;99.90;;;;;;5048054;28;20037;-62
2022/10/26 06:38:10;;;;;;;10.35;2.25;;;15.40;99.90;;;;;;5050983;28;20424;-64
2022/10/26 06:40:37;;;;;;;10.82;2.63;;;15.40;99.90;;;;;;5042228;28;20045;-63
2022/10/26 06:43:04;;;;;;;9.52;2.50;;;15.50;99.90;;;;;;5034821;28;20056;-61
2022/10/26 06:45:31;;;;;;;14.60;2.80;;;15.50;99.90;;;;;;5052173;28;20068;-62
2022/10/26 06:47:57;;;;;;;11.52;2.90;;;15.40;99.90;;;;;;5043361;28;20049;-63
2022/10/26 06:50:24;;;;;;;14.93;2.63;;;15.40;99.90;;;;;;5052162;28;20384;-61
2022/10/26 06:52:51;;;;;;;13.85;3.22;;;15.40;99.90;;;;;;5050381;28;20110;-62
2022/10/26 06:55:17;;;;;;;12.13;2.65;;;15.40;99.90;;;;;;5053728;28;20061;-63
2022/10/26 06:57:44;;;;;;;14.52;2.53;;;15.40;99.90;;;;;;5050229;28;20099;-63
2022/10/26 07:00:11;;;;;;;14.75;2.70;;;15.40;99.90;;;;;;5053938;28;20105;-62
2022/10/26 07:02:37;;;;;;;12.25;2.58;;;15.40;99.90;;;;;;5046196;28;20120;-63
2022/10/26 07:05:05;;;;;;;17.38;2.97;;;15.40;99.90;;;;;;5044042;28;20095;-62
2022/10/26 07:07:31;;;;;;;17.33;2.67;;;15.40;99.90;;;;;;5051095;28;20096;-62
2022/10/26 07:09:58;;;;;;;12.90;2.90;;;15.50;99.90;;;;;;5052077;28;20115;-62
2022/10/26 07:12:25;;;;;;;12.77;2.58;;;15.40;99.90;;;;;;5048264;28;20041;-63
2022/10/26 07:14:59;;;;;;;11.50;2.90;;;15.50;99.90;;;;;;5051075;28;20055;-61
2022/10/26 07:17:27;;;;;;;12.02;2.33;;;15.50;99.90;;;;;;5053146;28;20076;-62
2022/10/26 07:19:53;;;;;;;12.57;2.97;;;15.40;99.90;;;;;;5045540;28;20037;-62
2022/10/26 07:22:20;;;;;;;12.85;2.47;;;15.50;99.90;;;;;;5048541;28;20084;-63
2022/10/26 07:24:49;;;;;;;20.13;3.05;;;15.40;99.90;;;;;;5041768;28;20116;-63
2022/10/26 07:27:18;;;;;;;23.83;3.10;;;15.40;99.90;;;;;;5046377;28;20120;-63
2022/10/26 07:29:45;;;;;;;17.90;2.92;;;15.50;99.90;;;;;;5048487;28;20071;-62
2022/10/26 07:32:11;;;;;;;16.42;2.80;;;15.50;99.90;;;;;;5050338;28;20447;-62
2022/10/26 07:34:39;;;;;;;15.38;2.65;;;15.50;99.90;;;;;;5044361;28;20044;-61
2022/10/26 07:37:06;;;;;;;17.35;3.55;;;15.50;99.90;;;;;;5036216;28;20469;-63
2022/10/26 07:39:32;;;;;;;18.25;2.80;;;15.50;99.90;;;;;;5044668;28;20045;-64
2022/10/26 07:41:59;;;;;;;17.48;2.70;;;15.50;99.90;;;;;;5051170;28;20558;-62
2022/10/26 07:44:26;;;;;;;10.77;2.25;;;15.50;99.90;;;;;;5050371;28;20041;-62
2022/10/26 07:46:53;;;;;;;26.10;3.83;;;15.50;99.90;;;;;;5041851;28;20068;-63
2022/10/26 07:49:19;;;;;;;27.45;3.45;;;15.50;99.90;;;;;;5043312;28;20071;-61
2022/10/26 07:51:50;;;;;;;21.13;3.92;;;15.60;99.90;;;;;;5046231;28;20040;-63
2022/10/26 07:54:17;;;;;;;19.67;2.85;;;15.60;99.90;;;;;;5047136;28;20435;-63
2022/10/26 07:56:43;;;;;;;15.55;2.80;;;15.70;99.90;;;;;;5049518;28;20041;-62
2022/10/26 07:59:10;;;;;;;18.05;2.67;;;15.70;99.90;;;;;;5049790;28;20095;-62
2022/10/26 08:01:37;;;;;;;25.65;3.50;;;15.80;99.90;;;;;;5051032;28;20123;-60
2022/10/26 08:04:04;;;;;;;26.50;6.05;;;15.80;99.90;;;;;;5044486;28;20480;-63
2022/10/26 08:06:30;;;;;;;16.83;3.38;;;15.90;99.90;;;;;;5045929;28;20087;-62
2022/10/26 08:08:57;;;;;;;23.38;10.00;;;15.90;99.90;;;;;;5042718;28;20369;-61
2022/10/26 08:11:24;;;;;;;13.13;3.63;;;16.00;99.90;;;;;;5055940;28;20076;-62
2022/10/26 08:13:50;;;;;;;17.73;3.10;;;16.00;99.90;;;;;;5042826;28;20109;-63
2022/10/26 08:16:17;;;;;;;13.75;3.15;;;16.10;99.90;;;;;;5049154;28;20037;-63
2022/10/26 08:18:44;;;;;;;15.98;2.83;;;16.10;99.90;;;;;;5048762;28;20483;-62
2022/10/26 08:21:11;;;;;;;14.52;2.90;;;16.10;99.90;;;;;;5036624;28;20061;-60
2022/10/26 08:23:43;;;;;;;24.23;3.42;;;16.20;99.90;;;;;;5050441;28;20048;-62
2022/10/26 08:26:10;;;;;;;12.50;2.78;;;16.20;99.90;;;;;;5050806;28;20043;-61
2022/10/26 08:28:37;;;;;;;16.10;3.42;;;16.30;99.90;;;;;;5056831;28;20037;-62
2022/10/26 08:31:03;;;;;;;22.23;3.13;;;16.40;99.90;;;;;;5050441;28;20072;-63
2022/10/26 08:33:30;;;;;;;13.75;2.90;;;16.40;99.90;;;;;;5036479;28;20041;-60
2022/10/26 08:35:57;;;;;;;16.25;3.20;;;16.50;99.90;;;;;;5036334;28;20115;-61
2022/10/26 08:38:23;;;;;;;14.40;3.00;;;16.50;99.90;;;;;;5039479;28;20049;-63
2022/10/26 08:40:50;;;;;;;17.08;3.40;;;16.50;99.90;;;;;;5055986;28;20098;-62
2022/10/26 08:43:17;;;;;;;19.75;2.90;;;16.50;99.90;;;;;;5040489;28;20044;-63
2022/10/26 08:45:44;;;;;;;22.75;3.80;;;16.60;99.90;;;;;;5056340;28;20419;-64
2022/10/26 08:48:11;;;;;;;19.45;3.78;;;16.60;99.90;;;;;;5055910;28;20124;-60
2022/10/26 08:50:37;;;;;;;18.92;3.63;;;16.70;99.90;;;;;;5059128;28;20067;-61
2022/10/26 08:53:08;;;;;;;24.45;4.47;;;16.70;99.90;;;;;;5075901;28;20133;-63
2022/10/26 08:55:34;;;;;;;29.80;4.63;;;16.70;99.90;;;;;;5055055;28;20464;-63
2022/10/26 08:58:01;;;;;;;22.92;3.15;;;16.80;99.90;;;;;;5038847;28;20117;-61
2022/10/26 09:00:28;;;;;;;28.30;3.53;;;16.90;99.90;;;;;;5054244;28;20186;-63
2022/10/26 09:02:55;;;;;;;34.35;3.83;;;16.90;99.90;;;;;;5041313;28;20036;-63
2022/10/26 09:05:21;;;;;;;21.65;3.33;;;17.00;99.90;;;;;;5050026;28;20519;-61
2022/10/26 09:07:48;;;;;;;23.73;3.53;;;17.10;99.90;;;;;;5051776;28;20127;-64
2022/10/26 09:10:15;;;;;;;24.95;3.88;;;17.10;99.90;;;;;;5043305;28;20084;-63
2022/10/26 09:12:42;;;;;;;25.67;4.28;;;17.20;99.90;;;;;;5047743;28;20124;-61
2022/10/26 09:15:08;;;;;;;19.48;3.40;;;17.20;99.90;;;;;;5052848;28;20072;-62
2022/10/26 09:17:35;;;;;;;20.13;2.92;;;17.20;99.90;;;;;;5044517;28;20127;-62
2022/10/26 09:20:02;;;;;;;25.92;3.65;;;17.20;99.90;;;;;;5053148;28;20064;-61
2022/10/26 09:22:28;;;;;;;23.63;3.78;;;17.30;99.90;;;;;;5046779;28;20499;-62
2022/10/26 09:24:55;;;;;;;15.85;2.60;;;17.40;99.90;;;;;;5049066;28;20057;-62
2022/10/26 09:27:22;;;;;;;55.03;4.55;;;17.40;99.90;;;;;;5049814;28;20036;-62
2022/10/26 09:29:49;;;;;;;41.72;4.30;;;17.40;99.90;;;;;;5052591;28;20127;-62
2022/10/26 09:32:15;;;;;;;20.63;3.60;;;17.50;99.90;;;;;;5047198;28;20044;-63
2022/10/26 09:34:42;;;;;;;11.73;2.42;;;17.50;99.90;;;;;;5049889;28;20090;-61
2022/10/26 09:37:09;;;;;;;20.25;2.70;;;17.50;99.90;;;;;;5044548;28;20115;-61
2022/10/26 09:39:35;;;;;;;17.48;2.90;;;17.50;99.90;;;;;;5047333;28;20041;-64
2022/10/26 09:42:02;;;;;;;20.70;3.25;;;17.60;99.90;;;;;;5045617;28;20048;-62
2022/10/26 09:44:29;;;;;;;15.30;2.95;;;17.50;99.90;;;;;;5052652;28;20404;-63
2022/10/26 09:46:55;;;;;;;16.17;2.83;;;17.60;99.90;;;;;;5048225;28;20072;-63
2022/10/26 09:49:22;;;;;;;22.30;3.30;;;17.50;99.90;;;;;;5050394;28;20071;-63
2022/10/26 09:51:49;;;;;;;16.85;2.60;;;17.50;99.90;;;;;;5052290;28;20074;-62
2022/10/26 09:54:16;;;;;;;13.70;3.17;;;17.50;99.90;;;;;;5043046;28;20037;-63
2022/10/26 09:56:43;;;;;;;25.30;7.75;;;17.50;99.90;;;;;;5049453;28;20033;-61
2022/10/26 09:59:10;;;;;;;18.85;5.30;;;17.50;99.90;;;;;;5048348;28;20124;-62
2022/10/26 10:01:36;;;;;;;18.75;3.92;;;17.50;99.90;;;;;;5049469;28;20071;-63
2022/10/26 10:04:07;;;;;;;18.10;3.05;;;17.50;99.90;;;;;;5051340;28;20131;-63
2022/10/26 10:06:34;;;;;;;23.70;3.85;;;17.50;99.90;;;;;;5048073;28;20491;-62
2022/10/26 10:09:01;;;;;;;22.35;3.53;;;17.50;99.90;;;;;;5054086;28;20365;-62
2022/10/26 10:11:27;;;;;;;46.42;4.38;;;17.50;99.90;;;;;;5048953;28;20098;-63
2022/10/26 10:13:54;;;;;;;32.67;3.70;;;17.50;99.90;;;;;;5050217;28;20397;-64
2022/10/26 10:16:21;;;;;;;20.17;3.22;;;17.60;99.90;;;;;;5051770;28;20167;-63
2022/10/26 10:18:48;;;;;;;39.00;3.70;;;17.60;99.90;;;;;;5052936;28;20526;-62
2022/10/26 10:21:14;;;;;;;15.75;2.67;;;17.60;99.90;;;;;;5052746;28;20048;-64
2022/10/26 10:23:41;;;;;;;13.43;2.88;;;17.50;99.90;;;;;;5050323;28;20112;-64
2022/10/26 10:26:09;;;;;;;14.38;3.08;;;17.50;99.90;;;;;;5050155;28;20049;-62
2022/10/26 10:28:36;;;;;;;31.50;3.90;;;17.60;99.90;;;;;;5047724;28;20041;-61
2022/10/26 10:31:03;;;;;;;31.95;3.85;;;17.70;99.90;;;;;;5051470;28;20098;-64
2022/10/26 10:33:30;;;;;;;15.23;3.03;;;17.70;99.90;;;;;;5046209;28;20044;-63
2022/10/26 10:35:56;;;;;;;13.52;3.50;;;17.70;99.90;;;;;;5044282;28;20160;-63
2022/10/26 10:38:23;;;;;;;11.77;3.03;;;17.70;99.90;;;;;;5052945;28;20043;-63
2022/10/26 10:40:50;;;;;;;17.80;3.28;;;17.70;99.90;;;;;;5045090;28;20103;-64
2022/10/26 10:43:16;;;;;;;16.10;3.10;;;17.80;99.90;;;;;;5053422;28;20556;-64
2022/10/26 10:45:43;;;;;;;22.05;3.70;;;17.90;99.90;;;;;;5053728;28;20409;-62
2022/10/26 10:48:10;;;;;;;20.27;3.60;;;17.90;99.90;;;;;;5053280;28;20463;-67
2022/10/26 10:50:36;;;;;;;21.13;3.35;;;18.00;99.90;;;;;;5053360;28;20689;-63
2022/10/26 10:53:03;;;;;;;14.07;3.00;;;18.00;99.90;;;;;;5053168;28;20098;-63
2022/10/26 10:55:30;;;;;;;14.40;2.88;;;18.10;99.90;;;;;;5050057;28;20348;-63
2022/10/26 10:57:57;;;;;;;14.82;3.03;;;18.20;99.90;;;;;;5047274;28;20068;-62
2022/10/26 11:00:23;;;;;;;14.32;3.05;;;18.20;99.90;;;;;;5051928;28;20045;-62
2022/10/26 11:02:50;;;;;;;15.93;3.30;;;18.30;99.90;;;;;;5052437;28;20763;-61
2022/10/26 11:05:17;;;;;;;12.98;3.10;;;18.40;99.90;;;;;;5047200;28;20450;-61
2022/10/26 11:07:49;;;;;;;17.38;3.50;;;18.40;99.90;;;;;;5046514;28;20123;-62
2022/10/26 11:10:16;;;;;;;14.93;3.10;;;18.40;99.90;;;;;;5052024;28;20068;-62
2022/10/26 11:12:42;;;;;;;18.52;2.97;;;18.40;99.90;;;;;;5046902;28;20087;-61
2022/10/26 11:15:09;;;;;;;16.80;3.30;;;18.30;99.90;;;;;;5042550;28;20120;-62
2022/10/26 11:17:36;;;;;;;14.25;2.97;;;18.30;99.90;;;;;;5049208;28;20554;-62
2022/10/26 11:20:02;;;;;;;18.52;3.67;;;18.30;99.90;;;;;;5048905;28;20075;-63
2022/10/26 11:22:29;;;;;;;16.83;4.72;;;18.30;99.90;;;;;;5051707;28;20120;-63
2022/10/26 11:24:56;;;;;;;13.32;3.00;;;18.30;99.90;;;;;;5047893;28;20037;-60
2022/10/26 11:27:23;;;;;;;14.60;3.13;;;18.40;99.90;;;;;;5050351;28;20124;-63
2022/10/26 11:29:49;;;;;;;10.15;2.92;;;18.40;99.90;;;;;;5047069;28;20091;-63
2022/10/26 11:32:16;;;;;;;25.05;3.42;;;18.50;99.90;;;;;;5052690;28;20071;-62
2022/10/26 11:34:43;;;;;;;16.58;3.40;;;18.50;99.90;;;;;;5052746;28;20419;-63
2022/10/26 11:37:09;;;;;;;14.95;3.13;;;18.50;99.90;;;;;;5052623;28;20040;-62
2022/10/26 11:39:36;;;;;;;24.65;3.53;;;18.50;99.90;;;;;;5052587;28;20468;-61
2022/10/26 11:42:03;;;;;;;16.75;3.40;;;18.50;99.90;;;;;;5051223;28;20074;-62
2022/10/26 11:44:30;;;;;;;17.27;2.90;;;18.50;99.90;;;;;;5053597;28;20068;-61
2022/10/26 11:46:56;;;;;;;23.38;3.30;;;18.50;99.90;;;;;;5052722;28;20566;-62
2022/10/26 11:49:23;;;;;;;11.23;2.83;;;18.50;99.90;;;;;;5053071;28;20037;-63
2022/10/26 11:51:50;;;;;;;22.33;3.13;;;18.50;99.90;;;;;;5048246;28;20116;-62
2022/10/26 11:54:17;;;;;;;20.58;3.80;;;18.60;99.90;;;;;;5052873;28;20065;-63
2022/10/26 11:56:44;;;;;;;15.35;2.63;;;18.60;99.90;;;;;;5053360;28;20446;-61
2022/10/26 11:59:10;;;;;;;12.35;2.70;;;18.60;99.90;;;;;;5052733;28;20037;-61
2022/10/26 12:01:37;;;;;;;13.75;3.10;;;18.70;99.90;;;;;;5047945;28;20037;-62
2022/10/26 12:04:04;;;;;;;16.35;3.58;;;18.70;99.90;;;;;;5055476;28;20047;-61
2022/10/26 12:06:31;;;;;;;33.60;3.67;;;18.70;99.90;;;;;;5056420;28;20075;-60
2022/10/26 12:08:58;;;;;;;13.50;2.70;;;18.70;99.90;;;;;;5048768;28;20098;-61
2022/10/26 12:11:24;;;;;;;40.17;4.60;;;18.70;99.90;;;;;;5053517;28;20080;-60
2022/10/26 12:13:51;;;;;;;18.08;3.42;;;18.70;99.90;;;;;;5048005;28;20395;-62
2022/10/26 12:16:20;;;;;;;16.23;2.65;;;18.70;99.90;;;;;;5054260;28;20091;-62
2022/10/26 12:18:47;;;;;;;14.18;3.22;;;18.60;99.90;;;;;;5056165;28;20045;-63
2022/10/26 12:21:22;;;;;;;11.13;2.80;;;18.60;99.90;;;;;;5050762;28;20068;-61
2022/10/26 12:23:49;;;;;;;11.80;3.00;;;18.60;99.90;;;;;;5055306;28;20128;-64
2022/10/26 12:26:17;;;;;;;14.13;3.20;;;18.60;99.90;;;;;;5054859;28;20049;-61
2022/10/26 12:28:44;;;;;;;16.00;3.20;;;18.60;99.90;;;;;;5054478;28;20208;-62
2022/10/26 12:31:10;;;;;;;23.48;3.38;;;18.60;99.90;;;;;;5051082;28;20115;-61
2022/10/26 12:33:37;;;;;;;14.23;3.20;;;18.60;99.90;;;;;;5055362;28;20069;-63
2022/10/26 12:36:04;;;;;;;19.17;3.67;;;18.60;99.90;;;;;;5056082;28;20488;-63